Tillamook, OR

10:02 PM PST on December 07, 2016 (GMT -0800)
Greentree Ridge | | Change Station
Active Advisory: Winter Storm Warning

Elev 197 ft 45.45 °N, 123.78 °W | Updated 12 seconds ago

Clear
Clear
33.3 °F
Feels Like 30 °F
N
4.0
Wind Variable Wind from East
Gusts 4.0 mph

Today
High -- | Low -- °F
--% Chance of Precip.
Yesterday
High -- | Low -- °F
Precip. -- in
Pressure 30.11 in
Visibility 10.0 miles
Clouds Clear
Windchill 30 °F
Dew Point 18 °F
Humidity 53%
Rainfall 0.00 in
Snow Depth Not available.
7:42 AM 4:32 PM
First Quarter, 60% visible
METAR KTMK 080555Z AUTO 05014G24KT 10SM CLR 01/M07 A3011 RMK AO2
Pressure 30.11 in
Visibility 10.0 miles
Clouds Clear
Windchill 30 °F
Dew Point 18 °F
Humidity 53%
Rainfall 0.00 in
Snow Depth Not available.
7:42 AM 4:32 PM
First Quarter, 60% visible
METAR KTMK 080555Z AUTO 05014G24KT 10SM CLR 01/M07 A3011 RMK AO2

10-Day Weather Forecast

Almanac

Astronomy

Dec. 07, 2016 Rise Set
Actual Time
Civil Twilight
Nautical Twilight
Astronomical Twilight
Moon
Length of Visible Light
Length of Day
Tomorrow will be .
, % of the Moon is Illuminated

Today's Extremes

State Highs State Lows

Community

WunderPhotos

Upload Photos

1,956,259 photos uploaded!

WunderBlog® & News

Nearby

Air Quality

  Air Quality AQ Index Pollutant
Not available.

Snow Depth

Station Depth Elevation

Earthquake Activity

City Distance Mag. Time & Date
Minimum magnitude displayed is 2.5.

Coastal Water Temperatures

Place Temperature

Stations

Nearby Weather Stations

Station Location Temp. Windchill Dew Point Humidity Wind Precip. Elev Updated Type
                   

Watches & Warnings

Winter Storm Warning
Issued: 9:26 PM PST Dec. 7, 2016 – National Weather Service

... Winter Storm Warning remains in effect from 8 am to 8 PM PST
Thursday for the north Oregon coast and South Washington coast...

A Winter Storm Warning for snow and ice remains in effect from 8
am to 8 PM PST Thursday.

* Timing... a mixture of snow... sleet and freezing rain is
expected to begin after sunrise Thursday and continue into the
early evening Thursday. The bulk of the precipitation will be
freezing rain. The precipitation may change to all rain by 4
PM in the south but near and north of Astoria may take until
mid evening Thursday.

* Snow accumulations... snow and sleet accumulations are
expected to be relatively light... with the best chance of an
inch of snow in the northern sections toward Astoria and
Long Beach.

* Ice accumulations... up to a quarter inch of ice is possible.

* Impacts... travel will be difficult as roads become icy. Some
power disruptions are possible.

A Winter Storm Warning means significant amounts of snow...
sleet... and ice are expected or occurring. Strong winds are also
possible. This will make travel very hazardous or impossible.